Time,TemperatureF,DewpointF,PressureIn,WindDirection,WindDirectionDegrees,WindSpeedMPH,WindSpeedGustMPH,Humidity,HourlyPrecipIn,Conditions,Clouds,dailyrainin,SolarRadiationWatts/m^2,SoftwareType,DateUTC
2013-11-27 00:02:00,32.0,30.0,-100.00,NNE,29,4.0,6.0,91,-99.99,,,0.00,0.000000,,2013-11-27 08:02:00,
2013-11-27 00:11:00,32.0,30.0,-100.00,NNE,29,4.0,6.0,91,-99.99,,,0.00,0.000000,,2013-11-27 08:11:00,
2013-11-27 00:52:00,32.0,29.0,-100.00,NNE,26,4.0,6.0,89,-99.99,,,0.00,0.000000,,2013-11-27 08:52:00,
2013-11-27 01:02:00,32.0,29.0,-100.00,NNE,26,4.0,6.0,89,-99.99,,,0.00,0.000000,,2013-11-27 09:02:00,
2013-11-27 01:11:00,32.0,29.0,-100.00,NNE,26,4.0,6.0,89,-99.99,,,0.00,0.000000,,2013-11-27 09:11:00,
2013-11-27 01:43:00,31.0,29.0,-100.00,NNE,27,4.0,7.0,91,-99.99,,,0.00,0.000000,,2013-11-27 09:43:00,
2013-11-27 01:54:00,31.0,29.0,-100.00,NNE,27,4.0,7.0,91,-99.99,,,0.00,0.000000,,2013-11-27 09:54:00,
2013-11-27 02:03:00,31.0,29.0,-100.00,NNE,27,4.0,7.0,91,-99.99,,,0.00,0.000000,,2013-11-27 10:03:00,
2013-11-27 02:12:00,31.0,29.0,-100.00,NNE,27,4.0,7.0,91,-99.99,,,0.00,0.000000,,2013-11-27 10:12:00,
2013-11-27 02:53:00,32.0,29.0,-100.00,NE,36,3.0,5.0,90,-99.99,,,0.00,0.000000,,2013-11-27 10:53:00,
2013-11-27 03:02:00,32.0,29.0,-100.00,NE,36,3.0,5.0,90,-99.99,,,0.00,0.000000,,2013-11-27 11:02:00,
2013-11-27 03:12:00,32.0,29.0,-100.00,NE,36,3.0,5.0,90,-99.99,,,0.00,0.000000,,2013-11-27 11:12:00,
2013-11-27 03:53:00,31.0,28.0,-100.00,NE,36,4.0,6.0,89,-99.99,,,0.00,0.000000,,2013-11-27 11:53:00,
2013-11-27 04:02:00,31.0,28.0,-100.00,NE,36,4.0,6.0,89,-99.99,,,0.00,0.000000,,2013-11-27 12:02:00,
2013-11-27 04:11:00,31.0,28.0,-100.00,NE,36,4.0,6.0,89,-99.99,,,0.00,0.000000,,2013-11-27 12:11:00,
2013-11-27 04:52:00,32.0,30.0,-100.00,NE,50,4.0,6.0,90,-99.99,,,0.00,0.000000,,2013-11-27 12:52:00,
2013-11-27 05:02:00,32.0,30.0,-100.00,NE,50,4.0,6.0,90,-99.99,,,0.00,0.000000,,2013-11-27 13:02:00,
2013-11-27 05:11:00,32.0,30.0,-100.00,NE,50,4.0,6.0,90,-99.99,,,0.00,0.000000,,2013-11-27 13:11:00,
2013-11-27 05:52:00,32.0,30.0,-100.00,NE,53,4.0,7.0,90,-99.99,,,0.00,0.000000,,2013-11-27 13:52:00,
2013-11-27 06:02:00,32.0,30.0,-100.00,NE,53,4.0,7.0,90,-99.99,,,0.00,0.000000,,2013-11-27 14:02:00,
2013-11-27 06:11:00,32.0,30.0,-100.00,NE,53,4.0,7.0,90,-99.99,,,0.00,0.000000,,2013-11-27 14:11:00,
2013-11-27 06:53:00,32.0,29.0,-100.00,NNE,33,4.0,7.0,89,-99.99,,,0.00,0.000000,,2013-11-27 14:53:00,
2013-11-27 07:02:00,32.0,29.0,-100.00,NNE,33,4.0,7.0,89,-99.99,,,0.00,0.000000,,2013-11-27 15:02:00,
2013-11-27 07:11:00,32.0,29.0,-100.00,NNE,33,4.0,7.0,89,-99.99,,,0.00,0.000000,,2013-11-27 15:11:00,
2013-11-27 07:53:00,32.0,30.0,-100.00,NE,40,4.0,6.0,89,-99.99,,,0.00,0.120000,,2013-11-27 15:53:00,
2013-11-27 08:04:00,32.0,30.0,-100.00,NE,40,4.0,6.0,89,-99.99,,,0.00,0.120000,,2013-11-27 16:04:00,
2013-11-27 08:13:00,32.0,30.0,-100.00,NE,40,4.0,6.0,89,-99.99,,,0.00,0.120000,,2013-11-27 16:13:00,
2013-11-27 08:53:00,32.0,29.0,-100.00,NNE,28,4.0,7.0,87,-99.99,,,0.00,2.910000,,2013-11-27 16:53:00,
2013-11-27 09:02:00,32.0,29.0,-100.00,NNE,28,4.0,7.0,87,-99.99,,,0.00,2.910000,,2013-11-27 17:02:00,
2013-11-27 09:12:00,32.0,29.0,-100.00,NNE,28,4.0,7.0,87,-99.99,,,0.00,2.910000,,2013-11-27 17:12:00,
2013-11-27 09:52:00,32.0,28.0,-100.00,NNE,33,3.0,7.0,86,-99.99,,,0.00,34.049999,,2013-11-27 17:52:00,
2013-11-27 10:02:00,32.0,28.0,-100.00,NNE,33,3.0,7.0,86,-99.99,,,0.00,34.049999,,2013-11-27 18:02:00,
2013-11-27 10:12:00,32.0,28.0,-100.00,NNE,33,3.0,7.0,86,-99.99,,,0.00,34.049999,,2013-11-27 18:12:00,
2013-11-27 11:00:00,34.0,29.0,-100.00,North,6,4.0,7.0,81,-99.99,,,0.00,231.509995,,2013-11-27 19:00:00,
2013-11-27 11:52:00,34.0,29.0,-100.00,North,6,4.0,7.0,81,-99.99,,,0.00,231.509995,,2013-11-27 19:52:00,
2013-11-27 12:22:00,37.0,31.0,-100.00,SSE,167,3.0,7.0,79,-99.99,,,-99.99,362.609985,,2013-11-27 20:22:00,
2013-11-27 12:32:00,37.0,31.0,-100.00,SSE,167,3.0,7.0,79,-99.99,,,-99.99,362.609985,,2013-11-27 20:32:00,
2013-11-27 12:42:00,37.0,31.0,-100.00,SSE,167,3.0,7.0,79,-99.99,,,-99.99,362.609985,,2013-11-27 20:42:00,
2013-11-27 13:21:00,37.0,31.0,-100.00,SE,146,6.0,11.0,78,-99.99,,,-99.99,255.919998,,2013-11-27 21:21:00,
2013-11-27 13:33:00,37.0,31.0,-100.00,SE,146,6.0,11.0,78,-99.99,,,-99.99,255.919998,,2013-11-27 21:33:00,
2013-11-27 13:43:00,37.0,31.0,-100.00,SE,146,6.0,11.0,78,-99.99,,,-99.99,255.919998,,2013-11-27 21:43:00,
2013-11-27 14:23:00,38.0,32.0,-100.00,SE,135,6.0,9.0,78,-99.99,,,-99.99,185.250000,,2013-11-27 22:23:00,
2013-11-27 14:33:00,38.0,32.0,-100.00,SE,135,6.0,9.0,78,-99.99,,,-99.99,185.250000,,2013-11-27 22:33:00,
2013-11-27 14:42:00,38.0,32.0,-100.00,SE,135,6.0,9.0,78,-99.99,,,-99.99,185.250000,,2013-11-27 22:42:00,
2013-11-27 15:22:00,39.0,32.0,-100.00,SE,138,6.0,10.0,77,-99.99,,,-99.99,146.440002,,2013-11-27 23:22:00,
2013-11-27 15:33:00,39.0,32.0,-100.00,SE,138,6.0,10.0,77,-99.99,,,-99.99,146.440002,,2013-11-27 23:33:00,
2013-11-27 15:42:00,39.0,32.0,-100.00,SE,138,6.0,10.0,77,-99.99,,,-99.99,146.440002,,2013-11-27 23:42:00,
2013-11-27 16:21:00,38.0,32.0,-100.00,East,90,3.0,7.0,78,-99.99,,,-99.99,49.860001,,2013-11-28 00:21:00,
2013-11-27 16:32:00,38.0,32.0,-100.00,East,90,3.0,7.0,78,-99.99,,,-99.99,49.860001,,2013-11-28 00:32:00,
2013-11-27 16:41:00,38.0,32.0,-100.00,East,90,3.0,7.0,78,-99.99,,,-99.99,49.860001,,2013-11-28 00:41:00,
2013-11-27 17:21:00,36.0,32.0,-100.00,NNE,23,3.0,5.0,83,-99.99,,,-99.99,19.990000,,2013-11-28 01:21:00,
2013-11-27 17:32:00,36.0,32.0,-100.00,NNE,23,3.0,5.0,83,-99.99,,,-99.99,19.990000,,2013-11-28 01:32:00,
2013-11-27 17:42:00,36.0,32.0,-100.00,NNE,23,3.0,5.0,83,-99.99,,,-99.99,19.990000,,2013-11-28 01:42:00,
2013-11-27 18:21:00,33.0,29.0,-100.00,NNE,22,4.0,6.0,87,-99.99,,,-99.99,0.000000,,2013-11-28 02:21:00,
2013-11-27 18:32:00,33.0,29.0,-100.00,NNE,22,4.0,6.0,87,-99.99,,,-99.99,0.000000,,2013-11-28 02:32:00,
2013-11-27 18:41:00,33.0,29.0,-100.00,NNE,22,4.0,6.0,87,-99.99,,,-99.99,0.000000,,2013-11-28 02:41:00,
2013-11-27 19:21:00,33.0,30.0,-100.00,NNE,24,4.0,6.0,89,-99.99,,,-99.99,0.000000,,2013-11-28 03:21:00,
2013-11-27 19:33:00,33.0,30.0,-100.00,NNE,24,4.0,6.0,89,-99.99,,,-99.99,0.000000,,2013-11-28 03:33:00,
2013-11-27 19:44:00,33.0,30.0,-100.00,NNE,24,4.0,6.0,89,-99.99,,,-99.99,0.000000,,2013-11-28 03:44:00,
2013-11-27 20:23:00,32.0,30.0,-100.00,NNE,30,4.0,7.0,89,-99.99,,,-99.99,0.000000,,2013-11-28 04:23:00,
2013-11-27 20:33:00,32.0,30.0,-100.00,NNE,30,4.0,7.0,89,-99.99,,,-99.99,0.000000,,2013-11-28 04:33:00,
2013-11-27 20:42:00,32.0,30.0,-100.00,NNE,30,4.0,7.0,89,-99.99,,,-99.99,0.000000,,2013-11-28 04:42:00,
2013-11-27 21:22:00,32.0,30.0,-100.00,NNE,23,3.0,5.0,91,-99.99,,,-99.99,0.120000,,2013-11-28 05:22:00,
2013-11-27 21:33:00,32.0,30.0,-100.00,NNE,23,3.0,5.0,91,-99.99,,,-99.99,0.120000,,2013-11-28 05:33:00,
2013-11-27 21:43:00,32.0,30.0,-100.00,NNE,23,3.0,5.0,91,-99.99,,,-99.99,0.120000,,2013-11-28 05:43:00,
2013-11-27 22:22:00,32.0,29.0,-100.00,NNE,22,4.0,6.0,89,-99.99,,,-99.99,0.000000,,2013-11-28 06:22:00,
2013-11-27 22:33:00,32.0,29.0,-100.00,NNE,22,4.0,6.0,89,-99.99,,,-99.99,0.000000,,2013-11-28 06:33:00,
2013-11-27 22:42:00,32.0,29.0,-100.00,NNE,22,4.0,6.0,89,-99.99,,,-99.99,0.000000,,2013-11-28 06:42:00,
2013-11-27 23:11:00,32.0,30.0,-100.00,NNE,17,4.0,6.0,91,-99.99,,,-99.99,0.000000,,2013-11-28 07:11:00,
2013-11-27 23:21:00,32.0,30.0,-100.00,NNE,17,4.0,6.0,91,-99.99,,,-99.99,0.000000,,2013-11-28 07:21:00,
2013-11-27 23:32:00,32.0,30.0,-100.00,NNE,17,4.0,6.0,91,-99.99,,,-99.99,0.000000,,2013-11-28 07:32:00,
2013-11-27 23:41:00,32.0,30.0,-100.00,NNE,17,4.0,6.0,91,-99.99,,,-99.99,0.000000,,2013-11-28 07:41:00,